Terminal Aerodrome Forecast
Issued by NWS

Home | Current Version | Previous Version | Text Only | Print | Product List | Glossary On
Versions: 1 2 3 4 5 6 7 8 9 10 11 12 13 14 15 16 17 18
000
FTUS43 KOAX 220312 AAA
TAFCDR
TAF AMD
KCDR 220312Z 2203/2224 17008KT P6SM FEW020
     FM220700 22006KT P6SM SCT015
     FM221000 11005KT 2SM BR BKN012
     FM221600 28006KT P6SM SKC=

USA.gov is the U.S. government's official web portal to all federal, state and local government web resources and services.